Time;durP1;ratioP1;P1;durP2;ratioP2;P2;SDS_P1;SDS_P2;PMS_P1;PMS_P2;Temp;Humidity;BMP_temperature;BMP_pressure;BME280_temperature;BME280_humidity;BME280_pressure;Samples;Min_cycle;Max_cycle;Signal;HPM_P1;HPM_P2
2023/08/09 00:01:53;;;;;;;7.07;1.92;;;19.20;99.90;;;;;;5045286;28;20589;-22
2023/08/09 00:04:21;;;;;;;2.67;1.60;;;19.20;99.90;;;;;;5045105;28;20725;-27
2023/08/09 00:06:48;;;;;;;4.60;2.47;;;19.20;99.90;;;;;;5045385;28;20204;-27
2023/08/09 00:09:23;;;;;;;2.88;2.10;;;19.20;99.90;;;;;;5046680;28;20277;-27
2023/08/09 00:11:52;;;;;;;3.90;2.08;;;19.20;99.90;;;;;;5045009;28;20199;-27
2023/08/09 00:14:25;;;;;;;3.42;1.98;;;19.20;99.90;;;;;;5046416;28;20212;-27
2023/08/09 00:16:56;;;;;;;3.47;1.90;;;19.20;99.90;;;;;;5044904;28;20401;-28
2023/08/09 00:19:28;;;;;;;3.55;2.20;;;19.20;99.90;;;;;;5046324;28;20200;-27
2023/08/09 00:21:58;;;;;;;2.88;1.92;;;19.20;99.90;;;;;;5046333;28;20200;-27
2023/08/09 00:24:29;;;;;;;2.83;2.22;;;19.20;99.90;;;;;;5028247;28;20736;-27
2023/08/09 00:26:57;;;;;;;3.53;1.98;;;19.20;99.90;;;;;;5029098;28;20212;-27
2023/08/09 00:29:28;;;;;;;5.13;1.98;;;19.20;99.90;;;;;;5046036;28;20303;-27
2023/08/09 00:32:02;;;;;;;4.20;1.98;;;19.20;99.90;;;;;;5046858;28;20231;-28
2023/08/09 00:34:30;;;;;;;5.47;2.43;;;19.20;99.90;;;;;;5046197;28;20644;-27
2023/08/09 00:36:59;;;;;;;5.13;2.50;;;19.20;99.90;;;;;;5044574;28;20204;-27
2023/08/09 00:39:30;;;;;;;4.07;2.30;;;19.20;99.90;;;;;;5044381;28;20314;-27
2023/08/09 00:42:02;;;;;;;3.40;2.10;;;19.20;99.90;;;;;;5044522;28;20215;-28
2023/08/09 00:44:31;;;;;;;2.80;2.08;;;19.20;99.90;;;;;;5044550;28;20235;-28
2023/08/09 00:47:01;;;;;;;4.13;2.30;;;19.20;99.90;;;;;;5045697;28;20201;-28
2023/08/09 00:49:31;;;;;;;5.65;2.20;;;19.20;99.90;;;;;;5044246;28;20291;-28
2023/08/09 00:52:00;;;;;;;2.65;2.03;;;19.20;99.90;;;;;;5028250;28;20208;-22
2023/08/09 00:54:28;;;;;;;5.13;2.30;;;19.20;99.90;;;;;;5044314;28;20258;-22
2023/08/09 00:56:55;;;;;;;4.32;2.25;;;19.20;99.90;;;;;;5045947;28;20271;-22
2023/08/09 00:59:29;;;;;;;2.50;2.10;;;19.20;99.90;;;;;;5010953;28;20209;-22
2023/08/09 01:02:04;;;;;;;5.65;2.35;;;19.20;99.90;;;;;;5011081;28;20630;-22
2023/08/09 01:04:35;;;;;;;4.23;2.20;;;19.20;99.90;;;;;;5013502;28;20227;-22
2023/08/09 01:07:57;;;;;;;7.53;2.20;;;19.20;99.90;;;;;;5017140;28;20209;-22
2023/08/09 01:10:38;;;;;;;2.55;1.60;;;19.20;99.90;;;;;;5040500;28;20243;-22
2023/08/09 01:13:07;;;;;;;3.30;1.77;;;19.20;99.90;;;;;;5040356;28;20327;-22
2023/08/09 01:15:39;;;;;;;2.28;1.73;;;19.20;99.90;;;;;;5016915;28;20279;-22
2023/08/09 01:18:08;;;;;;;3.45;1.80;;;19.20;99.90;;;;;;5018749;28;20238;-22
2023/08/09 01:20:43;;;;;;;2.08;1.70;;;19.20;99.90;;;;;;5024072;28;20271;-22
2023/08/09 01:23:17;;;;;;;2.78;1.80;;;19.20;99.90;;;;;;5025414;28;20196;-22
2023/08/09 01:25:46;;;;;;;3.90;2.10;;;19.20;99.90;;;;;;5025267;28;20208;-22
2023/08/09 01:28:16;;;;;;;3.83;2.00;;;19.20;99.90;;;;;;5025408;28;20211;-22
2023/08/09 01:30:47;;;;;;;3.20;1.63;;;19.20;99.90;;;;;;5025298;28;20220;-22
2023/08/09 01:33:17;;;;;;;2.22;1.40;;;19.20;99.90;;;;;;5022776;28;20302;-22
2023/08/09 01:36:02;;;;;;;2.25;1.35;;;19.20;99.90;;;;;;5024246;28;20625;-22
2023/08/09 01:38:46;;;;;;;2.40;1.60;;;19.20;99.90;;;;;;5029502;28;20279;-22
2023/08/09 01:41:15;;;;;;;2.28;1.70;;;19.20;99.90;;;;;;5029397;28;20302;-22
2023/08/09 01:43:44;;;;;;;1.55;1.42;;;19.20;99.90;;;;;;5028126;28;20209;-22
2023/08/09 01:46:12;;;;;;;1.58;1.42;;;19.20;99.90;;;;;;5030202;28;20612;-22
2023/08/09 01:48:39;;;;;;;2.42;1.80;;;19.20;99.90;;;;;;5027871;28;20205;-22
2023/08/09 01:51:07;;;;;;;2.35;1.80;;;19.30;99.90;;;;;;5011506;28;20687;-22
2023/08/09 01:53:34;;;;;;;1.50;1.40;;;19.30;99.90;;;;;;5029076;28;20220;-22
2023/08/09 01:56:05;;;;;;;3.60;1.70;;;19.30;99.90;;;;;;5027663;28;20243;-22
2023/08/09 01:58:33;;;;;;;2.45;1.80;;;19.30;99.90;;;;;;5029430;28;20208;-22
2023/08/09 02:01:02;;;;;;;2.90;1.75;;;19.30;99.90;;;;;;5027704;28;20205;-22
2023/08/09 02:03:32;;;;;;;3.22;1.90;;;19.30;99.90;;;;;;5027403;28;20204;-22
2023/08/09 02:06:01;;;;;;;1.85;1.73;;;19.30;99.90;;;;;;5011017;28;20215;-22
2023/08/09 02:08:31;;;;;;;1.70;1.52;;;19.30;99.90;;;;;;5027218;28;20228;-22
2023/08/09 02:11:01;;;;;;;5.30;2.17;;;19.30;99.90;;;;;;5029070;28;20279;-22
2023/08/09 02:13:28;;;;;;;2.70;1.98;;;19.30;99.90;;;;;;5028734;28;20225;-22
2023/08/09 02:15:55;;;;;;;2.58;1.95;;;19.30;99.90;;;;;;5027318;28;20263;-22
2023/08/09 02:18:27;;;;;;;2.58;2.35;;;19.30;99.90;;;;;;5028577;28;20220;-22
2023/08/09 02:20:54;;;;;;;4.50;2.20;;;19.30;99.90;;;;;;5029068;28;20299;-22
2023/08/09 02:23:22;;;;;;;2.78;2.17;;;19.30;99.90;;;;;;5011368;28;20611;-22
2023/08/09 02:25:51;;;;;;;2.88;2.60;;;19.30;99.90;;;;;;5026904;28;20274;-22
2023/08/09 02:28:21;;;;;;;2.65;2.33;;;19.40;99.90;;;;;;5027059;28;20224;-27
2023/08/09 02:30:49;;;;;;;3.95;2.20;;;19.40;99.90;;;;;;5026942;28;20197;-28
2023/08/09 02:33:16;;;;;;;3.85;2.38;;;19.40;99.90;;;;;;5026692;28;20217;-27
2023/08/09 02:36:02;;;;;;;3.90;2.50;;;19.40;99.90;;;;;;5026675;28;20201;-27
2023/08/09 02:38:32;;;;;;;4.40;2.70;;;19.50;99.90;;;;;;5026457;28;20459;-27
2023/08/09 02:41:02;;;;;;;2.85;2.38;;;19.50;99.90;;;;;;5028342;28;20675;-27
2023/08/09 02:43:32;;;;;;;3.13;2.22;;;19.40;99.90;;;;;;5028243;28;20288;-27
2023/08/09 02:45:59;;;;;;;1.67;1.42;;;19.50;99.90;;;;;;5026688;28;20267;-27
2023/08/09 02:48:30;;;;;;;2.75;2.15;;;19.50;99.90;;;;;;5027052;28;20548;-27
2023/08/09 02:50:58;;;;;;;2.28;1.70;;;19.50;99.90;;;;;;5028053;28;20503;-27
2023/08/09 02:53:31;;;;;;;1.20;1.17;;;19.50;99.90;;;;;;5026373;28;20229;-27
2023/08/09 02:55:58;;;;;;;1.52;1.25;;;19.50;99.90;;;;;;5028255;28;20217;-27
2023/08/09 02:58:29;;;;;;;1.48;1.38;;;19.50;99.90;;;;;;5027235;28;20200;-22
2023/08/09 03:00:56;;;;;;;1.27;1.17;;;19.50;99.90;;;;;;5026794;28;20255;-22
2023/08/09 03:03:33;;;;;;;1.40;1.30;;;19.40;99.90;;;;;;5026497;28;20220;-22
2023/08/09 03:06:04;;;;;;;1.30;1.20;;;19.40;99.90;;;;;;5026544;28;20271;-22
2023/08/09 03:08:36;;;;;;;1.90;1.20;;;19.40;99.90;;;;;;5027896;28;20286;-22
2023/08/09 03:11:03;;;;;;;2.25;1.35;;;19.40;99.90;;;;;;5028099;28;20220;-22
2023/08/09 03:13:32;;;;;;;1.33;1.23;;;19.30;99.90;;;;;;5025814;28;20240;-22
2023/08/09 03:16:00;;;;;;;1.38;1.20;;;19.30;99.90;;;;;;5009595;28;20215;-22
2023/08/09 03:18:33;;;;;;;1.30;1.20;;;19.30;99.90;;;;;;5027910;28;20197;-22
2023/08/09 03:21:00;;;;;;;1.98;1.40;;;19.30;99.90;;;;;;5025833;28;20208;-22
2023/08/09 03:23:30;;;;;;;1.40;1.30;;;19.30;99.90;;;;;;5027689;28;20732;-22
2023/08/09 03:25:57;;;;;;;3.25;1.70;;;19.30;99.90;;;;;;5027508;28;20201;-22
2023/08/09 03:28:27;;;;;;;1.58;1.48;;;19.20;99.90;;;;;;5027143;28;20558;-22
2023/08/09 03:30:57;;;;;;;1.73;1.63;;;19.20;99.90;;;;;;5027573;28;20624;-22
2023/08/09 03:33:25;;;;;;;1.88;1.73;;;19.10;99.90;;;;;;5025905;28;20283;-22
2023/08/09 03:35:55;;;;;;;1.83;1.73;;;19.10;99.90;;;;;;5027860;28;20207;-22
2023/08/09 03:38:22;;;;;;;1.60;1.50;;;19.10;99.90;;;;;;5025848;28;20648;-27
2023/08/09 03:40:50;;;;;;;2.20;1.70;;;19.10;99.90;;;;;;5025733;28;20197;-27
2023/08/09 03:43:19;;;;;;;1.40;1.30;;;19.10;99.90;;;;;;5025773;28;20282;-28
2023/08/09 03:45:47;;;;;;;1.65;1.40;;;19.10;99.90;;;;;;5027181;28;20776;-27
2023/08/09 03:48:14;;;;;;;2.73;1.60;;;19.10;99.90;;;;;;5009312;28;20219;-22
2023/08/09 03:50:45;;;;;;;1.92;1.70;;;19.10;99.90;;;;;;5025745;28;20222;-22
2023/08/09 03:53:12;;;;;;;1.95;1.77;;;19.00;99.90;;;;;;5025319;28;20211;-22
2023/08/09 03:55:39;;;;;;;2.17;1.65;;;19.00;99.90;;;;;;5026564;28;20318;-22
2023/08/09 03:58:06;;;;;;;1.67;1.58;;;19.00;99.90;;;;;;5026678;28;20201;-22
2023/08/09 04:00:34;;;;;;;1.70;1.60;;;18.90;99.90;;;;;;5026866;28;20658;-26
2023/08/09 04:03:02;;;;;;;1.85;1.75;;;18.90;99.90;;;;;;5027136;28;20559;-27
2023/08/09 04:05:34;;;;;;;2.75;1.85;;;18.90;99.90;;;;;;5026609;28;20239;-27
2023/08/09 04:08:08;;;;;;;2.08;1.70;;;18.80;99.90;;;;;;5026838;28;20255;-27
2023/08/09 04:10:38;;;;;;;4.63;1.73;;;18.80;99.90;;;;;;5026951;28;20205;-27
2023/08/09 04:13:10;;;;;;;3.90;1.70;;;18.80;99.90;;;;;;5027075;28;20446;-27
2023/08/09 04:15:37;;;;;;;3.90;1.60;;;18.80;99.90;;;;;;5025156;28;20224;-27
2023/08/09 04:18:07;;;;;;;1.90;1.77;;;18.80;99.90;;;;;;5025203;28;20207;-27
2023/08/09 04:20:34;;;;;;;1.67;1.57;;;18.80;99.90;;;;;;5025387;28;20205;-27
2023/08/09 04:23:02;;;;;;;4.13;1.95;;;18.70;99.90;;;;;;5024879;28;20201;-27
2023/08/09 04:25:30;;;;;;;2.88;2.00;;;18.70;99.90;;;;;;5024663;28;20630;-27
2023/08/09 04:27:57;;;;;;;2.53;1.95;;;18.70;99.90;;;;;;5024929;28;20201;-27
2023/08/09 04:30:27;;;;;;;4.03;2.00;;;18.70;99.90;;;;;;5024539;28;20217;-27
2023/08/09 04:32:55;;;;;;;2.60;2.10;;;18.70;99.90;;;;;;5024741;28;20228;-28
2023/08/09 04:35:23;;;;;;;3.55;2.08;;;18.60;99.90;;;;;;5024658;28;20287;-27
2023/08/09 04:37:55;;;;;;;2.45;2.15;;;18.70;99.90;;;;;;5024708;28;20233;-27
2023/08/09 04:40:24;;;;;;;2.55;2.35;;;18.60;99.90;;;;;;5026024;28;20637;-27
2023/08/09 04:42:52;;;;;;;3.67;2.57;;;18.60;99.90;;;;;;5024854;28;20299;-27
2023/08/09 04:45:19;;;;;;;3.20;2.70;;;18.60;99.90;;;;;;5008066;28;20201;-27
2023/08/09 04:47:52;;;;;;;2.33;2.13;;;18.60;99.90;;;;;;5024559;28;20267;-27
2023/08/09 04:50:20;;;;;;;4.10;2.90;;;18.60;99.90;;;;;;5026508;28;20266;-27
2023/08/09 04:52:47;;;;;;;3.33;2.53;;;18.60;99.90;;;;;;5024391;28;20316;-27
2023/08/09 04:55:17;;;;;;;3.07;2.77;;;18.60;99.90;;;;;;5024500;28;20299;-28
2023/08/09 04:57:44;;;;;;;2.85;2.42;;;18.60;99.90;;;;;;5025955;28;20201;-27
2023/08/09 05:00:14;;;;;;;3.05;2.83;;;18.60;99.90;;;;;;5025787;28;20216;-27
2023/08/09 05:02:42;;;;;;;3.20;2.70;;;18.60;99.90;;;;;;5024226;28;20246;-27
2023/08/09 05:05:12;;;;;;;3.03;2.73;;;18.60;99.90;;;;;;5024189;28;20601;-28
2023/08/09 05:07:42;;;;;;;3.00;2.75;;;18.60;99.90;;;;;;5024072;28;20299;-27
2023/08/09 05:10:10;;;;;;;3.90;3.50;;;18.70;99.90;;;;;;5025902;28;20563;-27
2023/08/09 05:12:37;;;;;;;3.60;3.30;;;18.70;99.90;;;;;;5025561;28;20266;-27
2023/08/09 05:15:08;;;;;;;4.70;4.30;;;18.70;99.90;;;;;;5024265;28;20291;-27
2023/08/09 05:17:35;;;;;;;4.80;4.18;;;18.70;99.90;;;;;;5024001;28;20579;-27
2023/08/09 05:20:05;;;;;;;4.70;4.30;;;18.70;99.90;;;;;;5026056;28;20200;-27
2023/08/09 05:22:35;;;;;;;5.40;4.90;;;18.70;99.90;;;;;;5024071;28;20976;-27
2023/08/09 05:25:02;;;;;;;6.45;5.45;;;18.70;99.90;;;;;;5026063;28;20208;-27
2023/08/09 05:27:32;;;;;;;5.68;4.90;;;18.70;99.90;;;;;;5024541;28;20205;-27
2023/08/09 05:30:02;;;;;;;6.00;5.40;;;18.70;99.90;;;;;;5007921;28;20699;-28
2023/08/09 05:32:29;;;;;;;7.03;6.33;;;18.70;99.90;;;;;;5025785;28;20675;-27
2023/08/09 05:34:57;;;;;;;7.30;6.70;;;18.70;99.90;;;;;;5024493;28;20225;-27
2023/08/09 05:37:26;;;;;;;7.43;6.57;;;18.70;99.90;;;;;;5023800;28;20192;-27
2023/08/09 05:39:55;;;;;;;7.90;7.10;;;18.70;99.90;;;;;;5023959;28;20274;-27
2023/08/09 05:42:23;;;;;;;9.67;8.40;;;18.70;99.90;;;;;;5023732;28;20376;-27
2023/08/09 05:44:50;;;;;;;10.05;8.82;;;18.70;99.90;;;;;;5025428;28;20612;-27
2023/08/09 05:47:17;;;;;;;9.50;8.52;;;18.80;99.90;;;;;;5023612;28;20644;-27
2023/08/09 05:49:49;;;;;;;10.10;9.07;;;18.80;99.90;;;;;;5023891;28;20648;-27
2023/08/09 05:52:18;;;;;;;10.77;9.53;;;18.70;99.90;;;;;;5025232;28;21036;-27
2023/08/09 05:54:46;;;;;;;11.30;10.10;;;18.70;99.90;;;;;;5023835;28;20278;-27
2023/08/09 05:57:14;;;;;;;10.93;9.82;;;18.70;99.90;;;;;;5041228;28;20247;-27
2023/08/09 05:59:46;;;;;;;10.93;9.90;;;18.70;99.90;;;;;;5043212;28;20201;-28
2023/08/09 06:02:13;;;;;;;11.20;10.13;;;18.70;99.90;;;;;;5043609;28;20291;-27
2023/08/09 06:04:43;;;;;;;11.07;10.00;;;18.80;99.90;;;;;;5045343;28;20690;-27
2023/08/09 06:07:13;;;;;;;14.57;11.73;;;18.80;99.90;;;;;;5043564;28;20296;-27
2023/08/09 06:09:40;;;;;;;12.37;11.17;;;18.80;99.90;;;;;;5045577;28;20196;-27
2023/08/09 06:12:30;;;;;;;11.80;10.70;;;18.80;99.90;;;;;;5043779;28;20537;-27
2023/08/09 06:14:58;;;;;;;12.40;11.20;;;18.80;99.90;;;;;;5043173;28;20232;-27
2023/08/09 06:17:31;;;;;;;13.47;12.07;;;18.80;99.90;;;;;;5044545;28;20203;-28
2023/08/09 06:19:59;;;;;;;15.50;12.47;;;18.80;99.90;;;;;;5043614;28;20265;-27
2023/08/09 06:22:28;;;;;;;14.70;12.00;;;18.80;99.90;;;;;;5046255;28;20215;-27
2023/08/09 06:24:59;;;;;;;13.90;12.50;;;18.80;99.90;;;;;;5048790;28;20255;-27
2023/08/09 06:27:31;;;;;;;13.10;11.90;;;18.80;99.90;;;;;;5048406;28;20751;-27
2023/08/09 06:30:01;;;;;;;12.80;11.60;;;18.90;99.90;;;;;;5048982;28;20591;-27
2023/08/09 06:32:33;;;;;;;12.07;10.97;;;18.90;99.90;;;;;;5048438;28;20266;-28
2023/08/09 06:35:00;;;;;;;12.50;11.30;;;18.90;99.90;;;;;;5046897;28;20679;-27
2023/08/09 06:37:27;;;;;;;13.13;11.88;;;19.00;99.90;;;;;;5046344;28;20674;-27
2023/08/09 06:39:57;;;;;;;12.00;10.90;;;19.00;99.90;;;;;;5030268;28;20601;-27
2023/08/09 06:42:27;;;;;;;11.57;10.47;;;19.00;99.90;;;;;;5047049;28;20234;-27
2023/08/09 06:44:54;;;;;;;10.60;9.60;;;19.00;99.90;;;;;;5030130;28;20283;-27
2023/08/09 06:47:24;;;;;;;10.82;9.82;;;19.00;99.90;;;;;;5048068;28;20208;-27
2023/08/09 06:49:51;;;;;;;11.00;10.00;;;19.10;99.90;;;;;;5048565;28;20208;-27
2023/08/09 06:52:18;;;;;;;11.00;10.10;;;19.10;99.90;;;;;;5029948;28;20210;-27
2023/08/09 06:54:48;;;;;;;11.03;10.03;;;19.10;99.90;;;;;;5047624;28;20929;-27
2023/08/09 06:57:19;;;;;;;11.68;10.52;;;19.20;99.90;;;;;;5046218;28;20243;-27
2023/08/09 06:59:47;;;;;;;11.70;10.60;;;19.20;99.90;;;;;;5046529;28;20596;-27
2023/08/09 07:02:14;;;;;;;10.73;9.73;;;19.20;99.90;;;;;;5046172;28;20209;-27
2023/08/09 07:04:44;;;;;;;11.48;10.27;;;19.20;99.90;;;;;;5046315;28;20677;-27
2023/08/09 07:07:11;;;;;;;11.30;10.30;;;19.20;99.90;;;;;;5045896;28;20200;-27
2023/08/09 07:09:40;;;;;;;11.65;10.55;;;19.20;99.90;;;;;;5047443;28;20204;-27
2023/08/09 07:12:09;;;;;;;11.45;9.65;;;19.30;99.90;;;;;;5047282;28;20235;-27
2023/08/09 07:14:37;;;;;;;10.45;9.45;;;19.30;99.90;;;;;;5045773;28;20323;-27
2023/08/09 07:17:07;;;;;;;11.15;10.02;;;19.40;99.90;;;;;;5046174;28;20560;-27
2023/08/09 07:19:36;;;;;;;12.63;10.03;;;19.40;99.90;;;;;;5046286;28;20196;-27
2023/08/09 07:22:08;;;;;;;10.13;9.23;;;19.50;99.90;;;;;;5047338;28;20227;-27
2023/08/09 07:24:43;;;;;;;10.80;9.80;;;19.50;99.90;;;;;;5047132;28;20232;-27
2023/08/09 07:27:10;;;;;;;10.38;9.52;;;19.50;99.90;;;;;;5047289;28;20204;-27
2023/08/09 07:29:39;;;;;;;10.98;9.90;;;19.50;99.90;;;;;;5045609;28;20204;-27
2023/08/09 07:32:06;;;;;;;9.68;8.77;;;19.50;99.90;;;;;;5046936;28;20204;-27
2023/08/09 07:34:34;;;;;;;11.55;9.30;;;19.50;99.90;;;;;;5044444;28;20200;-28
2023/08/09 07:37:05;;;;;;;9.73;8.73;;;19.50;99.90;;;;;;5045400;28;20216;-27
2023/08/09 07:39:34;;;;;;;10.30;9.38;;;19.50;99.90;;;;;;5046685;28;20236;-27
2023/08/09 07:42:02;;;;;;;10.75;9.75;;;19.60;99.90;;;;;;5047110;28;20212;-27
2023/08/09 07:44:30;;;;;;;9.95;9.05;;;19.60;99.90;;;;;;5029023;28;20206;-27
2023/08/09 07:47:00;;;;;;;9.93;8.93;;;19.70;99.90;;;;;;5046634;28;20234;-27
2023/08/09 07:49:27;;;;;;;9.05;8.15;;;19.70;99.90;;;;;;5046637;28;20584;-28
2023/08/09 07:51:54;;;;;;;9.30;8.18;;;19.70;99.90;;;;;;5045369;28;20227;-27
2023/08/09 07:54:23;;;;;;;7.93;7.13;;;19.80;99.90;;;;;;5028964;28;20262;-28
2023/08/09 07:56:52;;;;;;;7.65;6.95;;;19.80;99.90;;;;;;5045659;28;20567;-27
2023/08/09 07:59:19;;;;;;;8.75;7.90;;;19.80;99.90;;;;;;5044809;28;20275;-27
2023/08/09 08:01:46;;;;;;;8.88;8.05;;;19.80;99.90;;;;;;5046759;28;20349;-27
2023/08/09 08:04:16;;;;;;;8.47;7.43;;;19.80;99.90;;;;;;5046513;28;20265;-28
2023/08/09 08:06:48;;;;;;;7.43;6.63;;;19.80;99.90;;;;;;5045049;28;20575;-27
2023/08/09 08:09:19;;;;;;;8.63;7.83;;;19.80;99.90;;;;;;5046373;28;20208;-28
2023/08/09 08:11:46;;;;;;;9.32;7.75;;;19.80;99.90;;;;;;5044831;28;20514;-27
2023/08/09 08:14:16;;;;;;;9.55;7.38;;;19.80;99.90;;;;;;5028141;28;20222;-28
2023/08/09 08:16:46;;;;;;;11.00;9.82;;;19.80;99.90;;;;;;5046335;28;20594;-27
2023/08/09 08:19:13;;;;;;;15.45;12.95;;;19.90;99.90;;;;;;5046453;28;20283;-28
2023/08/09 08:21:43;;;;;;;14.10;12.65;;;19.90;99.90;;;;;;5046019;28;20234;-28
2023/08/09 08:24:14;;;;;;;13.75;12.35;;;20.00;99.90;;;;;;5046504;28;20416;-27
2023/08/09 08:26:43;;;;;;;13.27;11.93;;;20.00;99.90;;;;;;5044698;28;20259;-22
2023/08/09 08:29:15;;;;;;;14.02;12.57;;;20.00;99.90;;;;;;5045978;28;20258;-27
2023/08/09 08:31:44;;;;;;;14.18;12.25;;;20.00;99.90;;;;;;5044525;28;20278;-27
2023/08/09 08:34:13;;;;;;;12.60;11.18;;;20.00;99.90;;;;;;5028569;28;20222;-27
2023/08/09 08:36:44;;;;;;;10.80;9.70;;;20.00;99.90;;;;;;5045802;28;20216;-27
2023/08/09 08:39:19;;;;;;;10.23;9.23;;;20.10;99.90;;;;;;5046003;28;20335;-27
2023/08/09 08:41:51;;;;;;;10.30;8.52;;;20.10;99.90;;;;;;5045936;28;20826;-27
2023/08/09 08:44:18;;;;;;;4.75;4.35;;;20.10;99.90;;;;;;5046064;28;20204;-28
2023/08/09 08:46:48;;;;;;;5.20;4.70;;;20.10;99.90;;;;;;5043287;28;20285;-29
2023/08/09 08:49:21;;;;;;;5.95;5.35;;;20.10;99.90;;;;;;5044112;28;20727;-28
2023/08/09 08:51:54;;;;;;;7.80;6.60;;;20.20;99.90;;;;;;5045580;28;20648;-28
2023/08/09 08:54:25;;;;;;;7.78;7.05;;;20.20;99.90;;;;;;5043893;28;20763;-28
2023/08/09 08:56:52;;;;;;;7.15;6.28;;;20.20;99.90;;;;;;5045600;28;20252;-23
2023/08/09 08:59:21;;;;;;;13.65;7.30;;;20.20;99.90;;;;;;5044135;28;20196;-22
2023/08/09 09:01:51;;;;;;;7.57;6.78;;;20.20;99.90;;;;;;5043734;28;20196;-22
2023/08/09 09:04:19;;;;;;;7.20;6.50;;;20.30;99.90;;;;;;5045230;28;20825;-23
2023/08/09 09:06:46;;;;;;;7.93;7.10;;;20.30;99.90;;;;;;5043906;28;20574;-23
2023/08/09 09:09:14;;;;;;;7.60;6.90;;;20.30;99.90;;;;;;5044020;28;20211;-22
2023/08/09 09:11:44;;;;;;;6.68;5.97;;;20.40;99.90;;;;;;5044329;28;20216;-23
2023/08/09 09:14:17;;;;;;;8.05;7.10;;;20.40;99.90;;;;;;5043992;28;20207;-23
2023/08/09 09:16:45;;;;;;;7.15;6.45;;;20.50;99.90;;;;;;5043782;28;20319;-23
2023/08/09 09:19:14;;;;;;;6.22;5.63;;;20.50;99.90;;;;;;5045269;28;20239;-23
2023/08/09 09:21:46;;;;;;;5.55;4.95;;;20.50;99.90;;;;;;5043664;28;20192;-23
2023/08/09 09:24:13;;;;;;;3.58;3.25;;;20.60;99.90;;;;;;5043760;28;20772;-23
2023/08/09 09:26:53;;;;;;;5.93;3.60;;;20.60;99.90;;;;;;5027059;28;20285;-23
2023/08/09 09:29:30;;;;;;;5.03;3.10;;;20.70;99.90;;;;;;5043567;28;20322;-22
2023/08/09 09:32:08;;;;;;;4.22;2.58;;;20.70;99.90;;;;;;5043678;28;20224;-23
2023/08/09 09:34:38;;;;;;;2.92;2.38;;;20.70;99.90;;;;;;5045222;28;20779;-23
2023/08/09 09:37:05;;;;;;;5.20;2.67;;;20.70;99.90;;;;;;5045069;28;20224;-23
2023/08/09 09:39:32;;;;;;;4.10;2.92;;;20.70;99.90;;;;;;5043294;28;20260;-23
2023/08/09 09:41:59;;;;;;;3.20;2.90;;;20.70;99.90;;;;;;5044957;28;20621;-23
2023/08/09 09:44:27;;;;;;;6.72;3.60;;;20.60;99.90;;;;;;5045185;28;20197;-22
2023/08/09 09:46:54;;;;;;;3.17;2.88;;;20.60;99.90;;;;;;5045793;28;20311;-23
2023/08/09 09:49:24;;;;;;;3.53;3.20;;;20.60;99.90;;;;;;5027966;28;20204;-23
2023/08/09 09:51:55;;;;;;;3.35;3.05;;;20.60;99.90;;;;;;5045014;28;20410;-22
2023/08/09 09:54:23;;;;;;;4.13;2.70;;;20.60;99.90;;;;;;5045049;28;20220;-23
2023/08/09 09:56:53;;;;;;;3.85;3.22;;;20.60;99.90;;;;;;5045266;28;20791;-22
2023/08/09 09:59:21;;;;;;;4.55;2.78;;;20.60;99.90;;;;;;5048897;28;20184;-23
2023/08/09 10:01:51;;;;;;;3.10;2.80;;;20.70;99.90;;;;;;5046992;28;20202;-23
2023/08/09 10:04:21;;;;;;;3.90;3.28;;;20.60;99.90;;;;;;5048505;28;20209;-22
2023/08/09 10:06:51;;;;;;;3.45;3.15;;;20.60;99.90;;;;;;5047240;28;20208;-23
2023/08/09 10:09:22;;;;;;;4.03;3.55;;;20.60;99.90;;;;;;5047672;28;20204;-23
2023/08/09 10:11:58;;;;;;;4.03;3.40;;;20.60;99.90;;;;;;5046979;28;20775;-22
2023/08/09 10:14:29;;;;;;;4.28;3.53;;;20.70;99.90;;;;;;5048562;28;20215;-22
2023/08/09 10:17:04;;;;;;;3.63;3.33;;;20.70;99.90;;;;;;5046574;28;20212;-23
2023/08/09 10:19:43;;;;;;;4.05;3.63;;;20.70;99.90;;;;;;5048087;28;20222;-23
2023/08/09 10:22:11;;;;;;;5.00;3.88;;;20.70;99.90;;;;;;5048607;28;20236;-22
2023/08/09 10:24:43;;;;;;;3.65;3.35;;;20.80;99.90;;;;;;5047313;28;20299;-22
2023/08/09 10:27:13;;;;;;;3.80;3.50;;;20.90;99.90;;;;;;5048039;28;20726;-23
2023/08/09 10:29:41;;;;;;;3.42;2.83;;;20.90;99.90;;;;;;5046498;28;20329;-23
2023/08/09 10:32:11;;;;;;;2.60;2.40;;;20.90;99.90;;;;;;5046461;28;20204;-23
2023/08/09 10:34:41;;;;;;;2.80;2.60;;;21.00;99.90;;;;;;5047862;28;20766;-23
2023/08/09 10:37:21;;;;;;;3.22;2.45;;;21.10;99.90;;;;;;5047734;28;20576;-23
2023/08/09 10:40:16;;;;;;;3.42;2.28;;;21.10;99.90;;;;;;5047441;28;20239;-22
2023/08/09 10:42:52;;;;;;;2.35;2.08;;;21.10;99.90;;;;;;5047940;28;20208;-23
2023/08/09 10:45:20;;;;;;;2.40;2.20;;;21.10;99.90;;;;;;5046369;28;20219;-23
2023/08/09 10:47:49;;;;;;;5.32;2.60;;;21.10;99.90;;;;;;5029719;28;20305;-23
2023/08/09 10:50:19;;;;;;;4.13;2.00;;;21.10;99.90;;;;;;5047560;28;20760;-23
2023/08/09 10:52:53;;;;;;;2.60;2.00;;;21.10;99.90;;;;;;5047613;28;20228;-23
2023/08/09 10:55:26;;;;;;;11.30;3.22;;;21.10;99.90;;;;;;5045977;28;20196;-23
2023/08/09 10:57:58;;;;;;;4.35;2.83;;;21.10;99.90;;;;;;5046353;28;20647;-23
2023/08/09 11:00:28;;;;;;;4.47;2.20;;;21.10;99.90;;;;;;5047665;28;20591;-23
2023/08/09 11:02:58;;;;;;;1.70;1.60;;;21.20;99.90;;;;;;5047335;28;20204;-23
2023/08/09 11:05:29;;;;;;;2.50;1.88;;;21.20;99.90;;;;;;5047204;28;20216;-22
2023/08/09 11:08:09;;;;;;;5.65;1.60;;;21.20;99.90;;;;;;5047019;28;20208;-23
2023/08/09 11:10:40;;;;;;;2.20;1.77;;;21.20;99.90;;;;;;5046493;28;20445;-23
2023/08/09 11:13:12;;;;;;;4.70;2.08;;;21.20;99.90;;;;;;5046953;28;20207;-23
2023/08/09 11:15:44;;;;;;;4.05;2.30;;;21.20;99.90;;;;;;5045072;28;20230;-23
2023/08/09 11:18:15;;;;;;;2.78;1.60;;;21.20;99.90;;;;;;5045278;28;20200;-23
2023/08/09 11:20:44;;;;;;;2.10;1.70;;;21.30;99.90;;;;;;5045708;28;20578;-23
2023/08/09 11:23:13;;;;;;;2.35;2.10;;;21.30;99.90;;;;;;5046700;28;20212;-22
2023/08/09 11:25:40;;;;;;;3.85;1.80;;;21.30;99.90;;;;;;5046952;28;20238;-22
2023/08/09 11:28:13;;;;;;;3.50;1.83;;;21.30;99.90;;;;;;5045208;28;20208;-23
2023/08/09 11:30:41;;;;;;;2.20;1.33;;;21.30;99.90;;;;;;5046802;28;20216;-23
2023/08/09 11:33:10;;;;;;;5.40;2.05;;;21.30;99.90;;;;;;5046716;28;20200;-23
2023/08/09 11:35:44;;;;;;;2.25;1.42;;;21.20;99.90;;;;;;5045488;28;20682;-23
2023/08/09 11:38:16;;;;;;;2.88;1.50;;;21.30;99.90;;;;;;5046424;28;20599;-23
2023/08/09 11:40:50;;;;;;;3.05;1.63;;;21.20;99.90;;;;;;5046660;28;20614;-23
2023/08/09 11:43:23;;;;;;;3.10;2.03;;;21.20;99.90;;;;;;5045135;28;20204;-22
2023/08/09 11:45:57;;;;;;;1.50;1.38;;;21.20;99.90;;;;;;5047050;28;20712;-23
2023/08/09 11:48:29;;;;;;;2.40;1.80;;;21.20;99.90;;;;;;5046566;28;20219;-23
2023/08/09 11:51:20;;;;;;;4.93;2.40;;;21.20;99.90;;;;;;5046953;28;20209;-22
2023/08/09 11:53:50;;;;;;;3.35;1.98;;;21.20;99.90;;;;;;5046536;28;20204;-22
2023/08/09 11:56:19;;;;;;;3.22;1.73;;;21.20;99.90;;;;;;5044875;28;20228;-22
2023/08/09 11:58:56;;;;;;;2.00;1.77;;;21.20;99.90;;;;;;5044635;28;20212;-22
2023/08/09 12:01:26;;;;;;;1.98;1.65;;;21.20;99.90;;;;;;5046506;28;20939;-22
2023/08/09 12:03:56;;;;;;;5.07;1.90;;;21.20;99.90;;;;;;5045007;28;20755;-22
2023/08/09 12:06:45;;;;;;;5.25;1.98;;;21.20;99.90;;;;;;5046496;28;20619;-22
2023/08/09 12:09:36;;;;;;;2.45;2.00;;;21.20;99.90;;;;;;5044523;28;20223;-22
2023/08/09 12:12:04;;;;;;;3.30;1.95;;;21.10;99.90;;;;;;5046418;28;20196;-22
2023/08/09 12:14:39;;;;;;;2.50;2.00;;;21.20;99.90;;;;;;5044745;28;20679;-22
2023/08/09 12:17:11;;;;;;;2.92;1.70;;;21.20;99.90;;;;;;5045990;28;20247;-22
2023/08/09 12:19:38;;;;;;;1.95;1.77;;;21.20;99.90;;;;;;5045703;28;20208;-22
2023/08/09 12:22:05;;;;;;;3.00;1.67;;;21.10;99.90;;;;;;5028188;28;20280;-22
2023/08/09 12:24:32;;;;;;;2.05;1.55;;;21.10;99.90;;;;;;5044473;28;20220;-22
2023/08/09 12:27:01;;;;;;;4.35;2.10;;;21.10;99.90;;;;;;5044168;28;20694;-22
2023/08/09 12:29:29;;;;;;;4.03;1.88;;;21.10;99.90;;;;;;5045604;28;20200;-22
2023/08/09 12:31:56;;;;;;;2.63;1.55;;;21.20;99.90;;;;;;5046390;28;20227;-22
2023/08/09 12:34:26;;;;;;;2.97;1.67;;;21.20;99.90;;;;;;5044186;28;20685;-22
2023/08/09 12:36:54;;;;;;;3.63;1.40;;;21.10;99.90;;;;;;5044361;28;20251;-22
2023/08/09 12:39:22;;;;;;;1.83;1.60;;;21.10;99.90;;;;;;5045582;28;20240;-22
2023/08/09 12:41:49;;;;;;;2.15;1.50;;;21.10;99.90;;;;;;5045686;28;20208;-23
2023/08/09 12:44:24;;;;;;;2.15;1.40;;;21.10;99.90;;;;;;5044087;28;20212;-22
2023/08/09 12:46:55;;;;;;;2.00;1.60;;;21.10;99.90;;;;;;5046077;28;20212;-22
2023/08/09 12:49:29;;;;;;;2.63;1.60;;;21.10;99.90;;;;;;5045813;28;20249;-23
2023/08/09 12:51:56;;;;;;;2.30;1.40;;;21.10;99.90;;;;;;5044311;28;20211;-22
2023/08/09 12:54:26;;;;;;;1.50;1.40;;;21.10;99.90;;;;;;5028208;28;20216;-22
2023/08/09 12:56:54;;;;;;;3.10;1.85;;;21.10;99.90;;;;;;5043876;28;20289;-22
2023/08/09 12:59:23;;;;;;;2.58;1.95;;;21.20;99.90;;;;;;5044257;28;20239;-22